Time;durP1;ratioP1;P1;durP2;ratioP2;P2;SDS_P1;SDS_P2;PMS_P1;PMS_P2;Temp;Humidity;BMP_temperature;BMP_pressure;BME280_temperature;BME280_humidity;BME280_pressure;Samples;Min_cycle;Max_cycle;Signal;HPM_P1;HPM_P2
2023/05/01 00:01:01;;;;;;;5.68;3.15;;;10.60;99.90;;;;;;7401223;19;19927;-78
2023/05/01 00:03:30;;;;;;;7.15;3.15;;;10.60;99.90;;;;;;7399506;19;19926;-78
2023/05/01 00:06:03;;;;;;;7.95;3.40;;;10.50;99.90;;;;;;7402662;19;19923;-77
2023/05/01 00:08:32;;;;;;;6.43;2.75;;;10.60;99.90;;;;;;7401396;19;19922;-77
2023/05/01 00:11:08;;;;;;;4.85;2.97;;;10.60;99.90;;;;;;7400352;19;20624;-77
2023/05/01 00:13:37;;;;;;;6.90;3.13;;;10.70;99.90;;;;;;7401193;19;19919;-77
2023/05/01 00:16:10;;;;;;;6.22;3.17;;;10.50;99.90;;;;;;7400837;19;20571;-78
2023/05/01 00:18:39;;;;;;;4.47;2.78;;;10.40;99.90;;;;;;7402499;19;19927;-78
2023/05/01 00:21:08;;;;;;;7.70;3.88;;;10.80;99.90;;;;;;7401520;19;19922;-77
2023/05/01 00:23:37;;;;;;;6.35;3.28;;;10.30;99.90;;;;;;7401743;19;19922;-76
2023/05/01 00:26:09;;;;;;;4.82;2.97;;;10.20;99.90;;;;;;7400780;19;20343;-77
2023/05/01 00:28:38;;;;;;;4.25;3.05;;;10.20;99.90;;;;;;7400677;19;19922;-78
2023/05/01 00:31:07;;;;;;;5.90;3.17;;;10.10;99.90;;;;;;7396626;19;19918;-77
2023/05/01 00:33:36;;;;;;;5.18;3.35;;;10.20;99.90;;;;;;7401795;19;19925;-77
2023/05/01 00:36:05;;;;;;;6.25;2.65;;;10.20;99.90;;;;;;7398734;19;20345;-78
2023/05/01 00:38:34;;;;;;;6.80;3.13;;;10.10;99.90;;;;;;7396897;19;20360;-77
2023/05/01 00:41:03;;;;;;;5.70;2.90;;;10.20;99.90;;;;;;7398915;19;20738;-77
2023/05/01 00:43:35;;;;;;;5.47;3.17;;;10.10;99.90;;;;;;7398736;19;19922;-76
2023/05/01 00:46:04;;;;;;;5.50;2.97;;;10.10;99.90;;;;;;7400882;19;19978;-77
2023/05/01 00:48:33;;;;;;;6.32;2.88;;;10.00;99.90;;;;;;7406520;19;19930;-77
2023/05/01 00:51:03;;;;;;;3.58;2.80;;;10.00;99.90;;;;;;7406787;19;19914;-78
2023/05/01 00:53:34;;;;;;;7.18;3.63;;;10.00;99.90;;;;;;7404516;19;19919;-78
2023/05/01 00:56:04;;;;;;;6.43;2.95;;;9.90;99.90;;;;;;7404266;19;19919;-78
2023/05/01 00:58:36;;;;;;;6.28;2.78;;;9.90;99.90;;;;;;7406198;19;20328;-78
2023/05/01 01:01:07;;;;;;;6.10;2.92;;;9.70;99.90;;;;;;7406747;19;19926;-78
2023/05/01 01:03:36;;;;;;;6.60;3.15;;;9.80;99.90;;;;;;7405592;19;20361;-78
2023/05/01 01:06:12;;;;;;;6.97;3.08;;;9.70;99.90;;;;;;7406586;19;19915;-77
2023/05/01 01:08:44;;;;;;;6.25;3.22;;;9.70;99.90;;;;;;7406417;19;20474;-78
2023/05/01 01:11:22;;;;;;;7.85;2.88;;;9.50;99.90;;;;;;7404388;19;19915;-78
2023/05/01 01:13:59;;;;;;;5.55;3.63;;;9.60;99.90;;;;;;7405659;19;19957;-78
2023/05/01 01:16:36;;;;;;;7.53;3.40;;;9.80;99.90;;;;;;7403188;19;20328;-78
2023/05/01 01:19:24;;;;;;;6.82;3.80;;;9.70;99.90;;;;;;7403902;19;19939;-77
2023/05/01 01:22:00;;;;;;;5.95;3.47;;;9.80;99.90;;;;;;7404050;19;19928;-77
2023/05/01 01:24:50;;;;;;;7.90;3.42;;;9.70;99.90;;;;;;7405214;19;19927;-78
2023/05/01 01:27:54;;;;;;;7.82;3.67;;;9.60;99.90;;;;;;7403831;19;20384;-78
2023/05/01 01:30:49;;;;;;;7.63;3.40;;;9.50;99.90;;;;;;7406897;19;19942;-77
2023/05/01 01:33:51;;;;;;;6.63;3.67;;;9.60;99.90;;;;;;7405858;19;19933;-77
2023/05/01 01:36:29;;;;;;;5.80;2.97;;;9.50;99.90;;;;;;7403418;19;19922;-77
2023/05/01 01:39:06;;;;;;;7.70;4.55;;;9.40;99.90;;;;;;7405809;19;19931;-77
2023/05/01 01:41:36;;;;;;;;;;;9.40;99.90;;;;;;7408882;19;20283;-77
2023/05/01 01:44:09;;;;;;;7.38;3.85;;;9.30;99.90;;;;;;7406116;19;19969;-77
2023/05/01 01:46:41;;;;;;;7.03;3.60;;;9.30;99.90;;;;;;7405536;19;19923;-77
2023/05/01 01:49:14;;;;;;;5.05;3.60;;;9.40;99.90;;;;;;7405691;19;19934;-76
2023/05/01 01:51:48;;;;;;;7.90;4.53;;;9.20;99.90;;;;;;7407074;19;19926;-77
2023/05/01 01:54:22;;;;;;;7.13;3.70;;;9.30;99.90;;;;;;7405114;19;20284;-78
2023/05/01 01:56:52;;;;;;;8.73;3.95;;;9.30;99.90;;;;;;7403774;19;20301;-77
2023/05/01 01:59:23;;;;;;;5.07;3.20;;;9.20;99.90;;;;;;7403571;19;19926;-77
2023/05/01 02:01:55;;;;;;;6.63;3.88;;;9.10;99.90;;;;;;7406084;19;19923;-77
2023/05/01 02:04:24;;;;;;;10.05;3.40;;;9.10;99.90;;;;;;7402080;19;19923;-78
2023/05/01 02:06:58;;;;;;;7.50;3.80;;;9.20;99.90;;;;;;7403766;19;19926;-77
2023/05/01 02:09:29;;;;;;;6.13;3.60;;;9.00;99.90;;;;;;7404915;19;20359;-77
2023/05/01 02:12:00;;;;;;;5.53;3.38;;;9.20;99.90;;;;;;7402880;19;19915;-78
2023/05/01 02:14:30;;;;;;;6.20;3.75;;;9.00;99.90;;;;;;7403349;19;19926;-77
2023/05/01 02:16:59;;;;;;;4.63;3.53;;;9.00;99.90;;;;;;7403149;19;19929;-77
2023/05/01 02:19:29;;;;;;;7.00;3.67;;;8.90;99.90;;;;;;7401107;19;19939;-78
2023/05/01 02:22:01;;;;;;;6.60;3.72;;;8.90;99.90;;;;;;7402188;19;19914;-78
2023/05/01 02:24:32;;;;;;;5.70;3.42;;;9.00;99.90;;;;;;7403419;19;19931;-78
2023/05/01 02:27:06;;;;;;;10.88;3.90;;;8.90;99.90;;;;;;7401954;19;19921;-79
2023/05/01 02:29:36;;;;;;;9.13;4.15;;;8.90;99.90;;;;;;7402502;19;20010;-77
2023/05/01 02:32:05;;;;;;;6.68;4.07;;;8.80;99.90;;;;;;7403108;19;19933;-77
2023/05/01 02:34:36;;;;;;;10.27;3.80;;;8.80;99.90;;;;;;7402742;19;19919;-76
2023/05/01 02:37:09;;;;;;;7.70;5.32;;;9.50;99.90;;;;;;7399878;19;19951;-78
2023/05/01 02:39:39;;;;;;;6.53;3.80;;;8.70;99.90;;;;;;7405008;19;19922;-76
2023/05/01 02:42:11;;;;;;;7.57;4.68;;;8.80;99.90;;;;;;7401619;19;19941;-78
2023/05/01 02:44:43;;;;;;;6.95;3.78;;;8.70;99.90;;;;;;7401218;19;19926;-79
2023/05/01 02:47:13;;;;;;;;;;;8.70;99.90;;;;;;7403991;19;19949;-78
2023/05/01 02:49:43;;;;;;;7.32;4.03;;;8.70;99.90;;;;;;7402101;19;20244;-77
2023/05/01 02:52:15;;;;;;;6.10;3.50;;;8.70;99.90;;;;;;7401619;19;20360;-78
2023/05/01 02:54:45;;;;;;;6.50;3.58;;;8.50;99.90;;;;;;7402247;19;19926;-78
2023/05/01 02:57:15;;;;;;;7.45;3.50;;;8.60;99.90;;;;;;7400964;19;19938;-78
2023/05/01 02:59:43;;;;;;;7.55;4.00;;;8.50;99.90;;;;;;7400376;19;19934;-78
2023/05/01 03:02:12;;;;;;;8.77;3.70;;;8.50;99.90;;;;;;7401085;19;19933;-78
2023/05/01 03:04:41;;;;;;;7.45;4.05;;;8.60;99.90;;;;;;7401353;19;19914;-78
2023/05/01 03:07:14;;;;;;;7.57;3.80;;;8.60;99.90;;;;;;7400922;19;19929;-77
2023/05/01 03:09:42;;;;;;;7.32;4.07;;;8.40;99.90;;;;;;7399306;19;19919;-78
2023/05/01 03:12:11;;;;;;;9.23;4.00;;;8.80;99.90;;;;;;7402440;19;19934;-77
2023/05/01 03:14:40;;;;;;;7.70;3.85;;;8.50;99.90;;;;;;7399216;19;19926;-77
2023/05/01 03:17:09;;;;;;;5.75;3.53;;;8.30;99.90;;;;;;7399146;19;19923;-78
2023/05/01 03:19:39;;;;;;;11.68;4.15;;;8.70;99.90;;;;;;7399135;19;19926;-78
2023/05/01 03:22:08;;;;;;;5.88;3.90;;;8.10;99.90;;;;;;7400717;19;19926;-78
2023/05/01 03:24:39;;;;;;;8.20;3.92;;;8.10;99.90;;;;;;7402762;19;19914;-77
2023/05/01 03:27:08;;;;;;;7.95;3.70;;;8.10;99.90;;;;;;7402652;19;19929;-78
2023/05/01 03:29:38;;;;;;;6.97;3.33;;;8.00;99.90;;;;;;7403415;19;20373;-78
2023/05/01 03:32:07;;;;;;;9.48;3.60;;;8.10;99.90;;;;;;7401873;19;20258;-78
2023/05/01 03:34:40;;;;;;;8.20;3.97;;;8.00;99.90;;;;;;7401849;19;19918;-77
2023/05/01 03:37:09;;;;;;;8.02;4.78;;;8.00;99.90;;;;;;7402052;19;20691;-78
2023/05/01 03:39:40;;;;;;;10.30;4.55;;;8.00;99.90;;;;;;7400648;19;19929;-78
2023/05/01 03:42:09;;;;;;;8.27;3.92;;;7.90;99.90;;;;;;7400614;19;19918;-78
2023/05/01 03:44:38;;;;;;;9.00;3.97;;;7.80;99.90;;;;;;7401193;19;19922;-78
2023/05/01 03:47:07;;;;;;;8.10;4.38;;;8.20;99.90;;;;;;7403223;19;19914;-77
2023/05/01 03:49:35;;;;;;;9.65;4.75;;;7.90;99.90;;;;;;7401557;19;19914;-77
2023/05/01 03:52:05;;;;;;;7.55;4.03;;;8.20;99.90;;;;;;7401080;19;19923;-77
2023/05/01 03:54:34;;;;;;;8.70;4.22;;;7.80;99.90;;;;;;7401320;19;19930;-78
2023/05/01 03:57:06;;;;;;;9.63;3.85;;;8.00;99.90;;;;;;7400800;19;19935;-77
2023/05/01 03:59:36;;;;;;;7.72;4.20;;;7.60;99.90;;;;;;7402737;19;19918;-77
2023/05/01 04:02:05;;;;;;;9.93;4.45;;;7.80;99.90;;;;;;7401212;19;19922;-77
2023/05/01 04:04:34;;;;;;;6.18;4.28;;;7.90;99.90;;;;;;7401432;19;19943;-77
2023/05/01 04:07:03;;;;;;;6.82;3.90;;;7.70;99.90;;;;;;7401518;19;20261;-77
2023/05/01 04:09:32;;;;;;;7.70;3.97;;;7.80;99.90;;;;;;7400671;19;19923;-77
2023/05/01 04:12:01;;;;;;;9.48;4.22;;;7.60;99.90;;;;;;7400272;19;19922;-78
2023/05/01 04:14:33;;;;;;;8.00;4.22;;;7.70;99.90;;;;;;7400951;19;19919;-77
2023/05/01 04:17:01;;;;;;;8.00;4.20;;;7.70;99.90;;;;;;7399895;19;19918;-77
2023/05/01 04:19:30;;;;;;;8.60;4.00;;;7.60;99.90;;;;;;7398579;19;19933;-78
2023/05/01 04:22:00;;;;;;;11.00;5.30;;;7.60;99.90;;;;;;7399339;19;19933;-77
2023/05/01 04:24:29;;;;;;;9.93;6.47;;;7.80;99.90;;;;;;7399008;19;19960;-77
2023/05/01 04:26:58;;;;;;;12.77;7.10;;;8.00;99.90;;;;;;7398140;19;19945;-77
2023/05/01 04:29:27;;;;;;;11.25;6.43;;;7.80;99.90;;;;;;7400379;19;19922;-77
2023/05/01 04:31:59;;;;;;;13.00;6.05;;;7.60;99.90;;;;;;7400226;19;19932;-77
2023/05/01 04:34:28;;;;;;;12.02;5.95;;;7.60;99.90;;;;;;7400860;19;19930;-77
2023/05/01 04:36:57;;;;;;;11.38;6.82;;;7.70;99.90;;;;;;7399115;19;19933;-77
2023/05/01 04:39:26;;;;;;;10.05;5.03;;;7.70;99.90;;;;;;7399571;19;19939;-77
2023/05/01 04:41:55;;;;;;;11.25;5.10;;;7.70;99.90;;;;;;7392946;19;19919;-77
2023/05/01 04:44:24;;;;;;;8.02;4.60;;;7.90;99.90;;;;;;7400601;19;19923;-77
2023/05/01 04:46:53;;;;;;;9.40;4.85;;;7.70;99.90;;;;;;7399886;19;19926;-77
2023/05/01 04:49:25;;;;;;;8.05;5.20;;;7.90;99.90;;;;;;7399578;19;19926;-76
2023/05/01 04:51:53;;;;;;;7.22;4.32;;;7.90;99.90;;;;;;7400367;19;19923;-77
2023/05/01 04:54:22;;;;;;;9.75;4.45;;;7.90;99.90;;;;;;7400851;19;19919;-77
2023/05/01 04:56:51;;;;;;;9.20;4.57;;;8.00;99.90;;;;;;7402214;19;19922;-76
2023/05/01 04:59:20;;;;;;;9.02;4.32;;;8.10;99.90;;;;;;7403477;19;19978;-77
2023/05/01 05:01:49;;;;;;;8.70;4.10;;;8.30;99.90;;;;;;7402706;19;19914;-77
2023/05/01 05:04:18;;;;;;;10.85;4.43;;;8.00;99.90;;;;;;7399128;19;19919;-77
2023/05/01 05:06:50;;;;;;;11.13;4.63;;;7.90;99.90;;;;;;7399969;19;20489;-76
2023/05/01 05:09:19;;;;;;;8.90;4.10;;;8.20;99.90;;;;;;7398934;19;19926;-77
2023/05/01 05:11:47;;;;;;;7.75;4.25;;;8.20;99.90;;;;;;7399127;19;19918;-77
2023/05/01 05:14:16;;;;;;;6.20;4.40;;;8.30;99.90;;;;;;7398602;19;19945;-76
2023/05/01 05:16:45;;;;;;;7.40;4.28;;;8.10;99.90;;;;;;7398446;19;20554;-77
2023/05/01 05:19:14;;;;;;;8.07;5.00;;;9.00;99.90;;;;;;7397298;19;19936;-78
2023/05/01 05:21:43;;;;;;;8.32;4.22;;;8.50;99.90;;;;;;7398706;19;19923;-77
2023/05/01 05:24:15;;;;;;;7.55;4.40;;;8.30;99.90;;;;;;7398523;19;19919;-77
2023/05/01 05:26:44;;;;;;;11.70;4.72;;;8.40;99.90;;;;;;7399431;19;19994;-77
2023/05/01 05:29:13;;;;;;;8.10;4.43;;;8.50;99.90;;;;;;7400381;19;19933;-77
2023/05/01 05:31:42;;;;;;;10.27;4.60;;;8.50;99.90;;;;;;7398463;19;19927;-77
2023/05/01 05:34:12;;;;;;;7.35;4.50;;;8.40;99.90;;;;;;7403481;19;19926;-77
2023/05/01 05:36:40;;;;;;;9.45;5.10;;;8.50;99.90;;;;;;7406017;19;19918;-77
2023/05/01 05:39:11;;;;;;;6.35;4.13;;;8.70;99.90;;;;;;7404800;19;19919;-76
2023/05/01 05:41:43;;;;;;;8.70;5.03;;;8.70;99.90;;;;;;7402127;19;19918;-77
2023/05/01 05:44:12;;;;;;;7.78;4.60;;;8.80;99.90;;;;;;7394338;19;19922;-77
2023/05/01 05:46:41;;;;;;;9.40;5.20;;;8.70;99.90;;;;;;7404795;19;19922;-77
2023/05/01 05:49:10;;;;;;;9.90;4.35;;;8.80;99.90;;;;;;7404500;19;19922;-76
2023/05/01 05:51:39;;;;;;;8.80;4.75;;;8.70;99.90;;;;;;7404444;19;19918;-77
2023/05/01 05:54:07;;;;;;;10.43;4.90;;;9.00;99.90;;;;;;7404992;19;19925;-77
2023/05/01 05:56:36;;;;;;;11.02;4.57;;;8.90;99.90;;;;;;7405722;19;19918;-77
2023/05/01 05:59:08;;;;;;;10.77;4.80;;;9.10;99.90;;;;;;7401819;19;20382;-76
2023/05/01 06:01:38;;;;;;;6.07;4.15;;;8.90;99.90;;;;;;7404024;19;20340;-77
2023/05/01 06:04:07;;;;;;;12.60;4.55;;;9.10;99.90;;;;;;7403815;19;19978;-77
2023/05/01 06:06:37;;;;;;;9.43;4.70;;;9.00;99.90;;;;;;7407032;19;20363;-76
2023/05/01 06:09:06;;;;;;;8.20;4.60;;;9.00;99.90;;;;;;7405447;19;19923;-77
2023/05/01 06:11:36;;;;;;;9.50;4.68;;;9.00;99.90;;;;;;7403136;19;19954;-77
2023/05/01 06:14:04;;;;;;;6.85;4.28;;;9.30;99.90;;;;;;7400674;19;19918;-77
2023/05/01 06:16:36;;;;;;;6.72;4.75;;;9.10;99.90;;;;;;7402988;19;19929;-77
2023/05/01 06:19:06;;;;;;;;;;;9.20;99.90;;;;;;7402971;19;19947;-76
2023/05/01 06:21:35;;;;;;;7.72;4.63;;;9.10;99.90;;;;;;7400748;19;19918;-76
2023/05/01 06:24:05;;;;;;;8.27;4.65;;;10.30;99.90;;;;;;7402843;19;19929;-77
2023/05/01 06:26:33;;;;;;;8.48;4.60;;;9.20;99.90;;;;;;7404509;19;20360;-77
2023/05/01 06:29:02;;;;;;;9.05;4.18;;;9.20;99.90;;;;;;7402990;19;19919;-77
2023/05/01 06:31:31;;;;;;;7.57;4.68;;;9.30;99.90;;;;;;7399499;19;19930;-78
2023/05/01 06:34:03;;;;;;;10.40;4.45;;;9.40;99.90;;;;;;7402517;19;19930;-76
2023/05/01 06:36:33;;;;;;;10.07;4.88;;;9.40;99.90;;;;;;7402146;19;19982;-77
2023/05/01 06:39:01;;;;;;;8.50;4.88;;;9.50;99.90;;;;;;7399594;19;19926;-77
2023/05/01 06:41:31;;;;;;;8.10;4.82;;;9.50;99.90;;;;;;7399426;19;19918;-77
2023/05/01 06:44:00;;;;;;;7.72;5.03;;;9.60;99.90;;;;;;7398940;19;20296;-77
2023/05/01 06:46:29;;;;;;;6.85;4.65;;;9.70;99.90;;;;;;7403609;19;19962;-77
2023/05/01 06:48:58;;;;;;;9.68;5.10;;;9.50;99.90;;;;;;7401132;19;19938;-77
2023/05/01 06:51:30;;;;;;;9.25;4.70;;;9.70;99.90;;;;;;7401778;19;20272;-77
2023/05/01 06:53:59;;;;;;;8.77;4.95;;;9.60;99.90;;;;;;7402545;19;19938;-77
2023/05/01 06:56:28;;;;;;;11.23;4.93;;;9.70;99.90;;;;;;7402208;19;19915;-77
2023/05/01 06:58:56;;;;;;;7.72;4.95;;;9.80;99.90;;;;;;7397700;19;19932;-76
2023/05/01 07:01:25;;;;;;;7.65;4.78;;;9.80;99.90;;;;;;7403688;19;20261;-77
2023/05/01 07:03:54;;;;;;;10.77;5.10;;;9.80;99.90;;;;;;7400809;19;19926;-76
2023/05/01 07:06:23;;;;;;;11.43;5.03;;;9.90;99.90;;;;;;7401511;19;20863;-75
2023/05/01 07:08:55;;;;;;;9.63;5.30;;;9.90;99.90;;;;;;7401116;19;19933;-76
2023/05/01 07:11:25;;;;;;;10.70;5.10;;;10.00;99.90;;;;;;7399488;19;19929;-76
2023/05/01 07:13:54;;;;;;;8.05;5.00;;;10.10;99.90;;;;;;7400255;19;19919;-77
2023/05/01 07:16:23;;;;;;;10.02;4.93;;;9.90;99.90;;;;;;7401177;19;19926;-77
2023/05/01 07:18:52;;;;;;;9.60;4.70;;;9.90;99.90;;;;;;7399125;19;19919;-77
2023/05/01 07:21:21;;;;;;;9.18;5.05;;;10.10;99.90;;;;;;7401106;19;19930;-76
2023/05/01 07:23:50;;;;;;;11.57;5.45;;;10.10;99.90;;;;;;7400052;19;19918;-76
2023/05/01 07:26:21;;;;;;;7.63;5.18;;;10.00;99.90;;;;;;7402081;19;19930;-75
2023/05/01 07:28:50;;;;;;;;;;;10.10;99.90;;;;;;7402187;19;19922;-76
2023/05/01 07:31:19;;;;;;;8.25;4.88;;;10.30;99.90;;;;;;7401462;19;19938;-76
2023/05/01 07:33:48;;;;;;;9.68;5.03;;;10.40;99.90;;;;;;7401724;19;19926;-76
2023/05/01 07:36:19;;;;;;;8.27;4.22;;;10.40;99.90;;;;;;7399319;19;19946;-76
2023/05/01 07:38:49;;;;;;;8.93;5.05;;;10.40;99.90;;;;;;7397262;19;19925;-75
2023/05/01 07:41:21;;;;;;;12.05;5.20;;;10.40;99.90;;;;;;7399566;19;19918;-76
2023/05/01 07:43:50;;;;;;;10.68;5.68;;;10.50;99.90;;;;;;7399865;19;19941;-76
2023/05/01 07:46:19;;;;;;;9.93;5.47;;;10.60;99.90;;;;;;7400920;19;19926;-78
2023/05/01 07:48:48;;;;;;;7.70;4.78;;;10.70;99.90;;;;;;7398967;19;19998;-78
2023/05/01 07:51:17;;;;;;;9.85;5.35;;;10.70;99.90;;;;;;7401061;19;19925;-78
2023/05/01 07:53:47;;;;;;;9.52;4.53;;;10.80;99.90;;;;;;7398905;19;20303;-77
2023/05/01 07:56:16;;;;;;;6.38;4.50;;;10.70;99.90;;;;;;7399981;19;19950;-78
2023/05/01 07:58:48;;;;;;;8.38;4.13;;;10.70;99.90;;;;;;7399327;19;20003;-76
2023/05/01 08:01:17;;;;;;;8.95;4.70;;;10.80;99.90;;;;;;7400499;19;19951;-77
2023/05/01 08:03:46;;;;;;;10.30;5.32;;;10.80;99.90;;;;;;7399742;19;19922;-75
2023/05/01 08:06:15;;;;;;;8.93;4.50;;;10.90;99.90;;;;;;7402040;19;19921;-78
2023/05/01 08:08:44;;;;;;;11.82;4.60;;;10.90;99.90;;;;;;7400628;19;20363;-78
2023/05/01 08:11:13;;;;;;;8.05;5.00;;;10.90;99.90;;;;;;7403227;19;19923;-75
2023/05/01 08:13:42;;;;;;;11.75;5.07;;;10.80;99.90;;;;;;7405933;19;19914;-77
2023/05/01 08:16:14;;;;;;;7.97;4.28;;;11.10;99.90;;;;;;7401830;19;19922;-76
2023/05/01 08:18:43;;;;;;;6.90;3.72;;;11.10;99.90;;;;;;7402291;19;20619;-76
2023/05/01 08:21:12;;;;;;;7.32;4.20;;;11.20;99.90;;;;;;7401800;19;19932;-78
2023/05/01 08:23:41;;;;;;;7.75;4.57;;;11.40;99.90;;;;;;7400258;19;19918;-77
2023/05/01 08:26:10;;;;;;;8.82;4.55;;;11.30;99.90;;;;;;7398237;19;19922;-76
2023/05/01 08:28:39;;;;;;;9.88;4.32;;;11.30;99.90;;;;;;7364539;19;19918;-76
2023/05/01 08:31:08;;;;;;;9.38;4.35;;;11.30;99.90;;;;;;7374083;19;20422;-80
2023/05/01 08:33:40;;;;;;;9.13;4.45;;;11.60;99.90;;;;;;7377462;19;19930;-76
2023/05/01 08:36:11;;;;;;;8.85;4.07;;;11.50;99.90;;;;;;7373856;19;19926;-77
2023/05/01 08:38:40;;;;;;;5.40;3.78;;;11.70;99.90;;;;;;7373702;19;19945;-78
2023/05/01 08:41:10;;;;;;;7.97;3.75;;;11.50;99.90;;;;;;7371809;19;19923;-76
2023/05/01 08:43:40;;;;;;;8.30;3.95;;;11.70;99.90;;;;;;7373904;19;19926;-77
2023/05/01 08:46:11;;;;;;;11.57;4.60;;;11.80;99.90;;;;;;7373558;19;19926;-75
2023/05/01 08:48:44;;;;;;;7.10;4.20;;;11.90;99.90;;;;;;7374663;19;19926;-76
2023/05/01 08:51:15;;;;;;;6.55;4.18;;;12.00;99.90;;;;;;7375014;19;19925;-76
2023/05/01 08:53:46;;;;;;;7.38;4.68;;;11.90;99.90;;;;;;7375671;19;19926;-76
2023/05/01 08:56:15;;;;;;;8.80;4.20;;;12.10;99.90;;;;;;7375048;19;20409;-76
2023/05/01 08:58:47;;;;;;;11.40;4.57;;;12.10;99.90;;;;;;7378474;19;19930;-76
2023/05/01 09:01:17;;;;;;;9.55;4.97;;;12.20;99.90;;;;;;7384277;19;20339;-77
2023/05/01 09:03:51;;;;;;;11.63;5.22;;;12.40;99.90;;;;;;7367551;19;19919;-78
2023/05/01 09:06:20;;;;;;;9.93;3.85;;;12.50;99.90;;;;;;7376398;19;19926;-77
2023/05/01 09:08:49;;;;;;;8.00;4.10;;;12.60;99.90;;;;;;7383977;19;19919;-76
2023/05/01 09:11:18;;;;;;;5.05;3.60;;;12.50;99.90;;;;;;7380708;19;19919;-76
2023/05/01 09:13:48;;;;;;;6.72;4.10;;;12.70;99.90;;;;;;7378271;19;20344;-83
2023/05/01 09:16:17;;;;;;;6.95;4.40;;;12.70;99.90;;;;;;7382985;19;20340;-76
2023/05/01 09:18:49;;;;;;;8.35;3.97;;;12.70;99.90;;;;;;7377549;19;19941;-77
2023/05/01 09:21:18;;;;;;;6.93;4.13;;;12.80;99.90;;;;;;7378937;19;19918;-76
2023/05/01 09:23:47;;;;;;;9.55;3.92;;;12.90;99.90;;;;;;7377883;19;20585;-79
2023/05/01 09:26:16;;;;;;;18.48;4.50;;;13.10;99.90;;;;;;7383505;19;19914;-78
2023/05/01 09:28:46;;;;;;;6.28;4.07;;;13.00;99.90;;;;;;7382309;19;19922;-78
2023/05/01 09:31:27;;;;;;;7.20;4.05;;;13.00;99.90;;;;;;7379772;19;21415;-79
2023/05/01 09:34:00;;;;;;;9.82;4.28;;;13.10;99.90;;;;;;7403810;19;20277;-78
2023/05/01 09:36:31;;;;;;;9.27;4.32;;;13.10;99.90;;;;;;7405734;19;19919;-76
2023/05/01 09:39:00;;;;;;;9.60;4.28;;;13.20;99.90;;;;;;7401528;19;20354;-78
2023/05/01 09:41:31;;;;;;;8.77;4.05;;;14.60;99.90;;;;;;7402450;19;20287;-76
2023/05/01 09:44:01;;;;;;;8.80;4.18;;;13.30;99.90;;;;;;7400719;19;19943;-77
2023/05/01 09:46:30;;;;;;;9.55;4.60;;;13.50;99.90;;;;;;7404299;19;20343;-76
2023/05/01 09:49:02;;;;;;;9.27;4.57;;;13.40;99.90;;;;;;7399495;19;19930;-78
2023/05/01 09:51:33;;;;;;;7.03;4.25;;;13.60;99.90;;;;;;7400162;19;20350;-84
2023/05/01 09:54:03;;;;;;;7.32;4.45;;;14.50;99.90;;;;;;7400972;19;19926;-78
2023/05/01 09:56:34;;;;;;;12.82;4.47;;;13.80;99.90;;;;;;7404323;19;21037;-76
2023/05/01 09:59:18;;;;;;;8.52;4.43;;;13.70;99.90;;;;;;7400174;19;19923;-79
2023/05/01 10:01:48;;;;;;;5.85;3.78;;;13.80;99.90;;;;;;7401898;19;19930;-77
2023/05/01 10:04:31;;;;;;;7.90;3.95;;;13.90;99.90;;;;;;7402819;19;19931;-76
2023/05/01 10:07:14;;;;;;;8.15;4.45;;;14.10;99.90;;;;;;7390542;19;20898;-76
2023/05/01 10:09:49;;;;;;;8.65;4.20;;;14.10;99.90;;;;;;7392266;19;19922;-77
2023/05/01 10:12:25;;;;;;;7.72;4.30;;;14.10;99.90;;;;;;7388856;19;19927;-74
2023/05/01 10:14:55;;;;;;;5.72;3.97;;;14.30;99.90;;;;;;7387111;19;19927;-76
2023/05/01 10:17:24;;;;;;;5.75;3.08;;;14.40;99.90;;;;;;7387150;19;20410;-76
2023/05/01 10:19:56;;;;;;;6.57;4.18;;;14.50;99.90;;;;;;7395906;19;19919;-75
2023/05/01 10:22:26;;;;;;;7.70;4.00;;;14.50;99.90;;;;;;7399048;19;20268;-77
2023/05/01 10:24:55;;;;;;;9.48;4.57;;;14.80;99.90;;;;;;7398899;19;20588;-76
2023/05/01 10:27:26;;;;;;;6.88;4.43;;;14.60;99.90;;;;;;7401004;19;19922;-75
2023/05/01 10:29:55;;;;;;;7.00;4.18;;;14.90;99.90;;;;;;7399618;19;19922;-76
2023/05/01 10:32:25;;;;;;;9.82;4.70;;;15.00;99.90;;;;;;7402419;19;19958;-78
2023/05/01 10:35:02;;;;;;;9.57;4.60;;;15.00;99.90;;;;;;7402311;19;19982;-77
2023/05/01 10:37:37;;;;;;;8.88;4.40;;;15.10;99.90;;;;;;7399784;19;19930;-79
2023/05/01 10:40:35;;;;;;;8.77;4.20;;;15.30;99.90;;;;;;7401126;19;19922;-79
2023/05/01 10:43:19;;;;;;;5.80;4.00;;;15.40;99.90;;;;;;7382942;19;19919;-77
2023/05/01 10:45:50;;;;;;;7.93;4.13;;;15.40;99.90;;;;;;7392881;19;20367;-76
2023/05/01 10:48:49;;;;;;;3.05;2.50;;;15.40;99.90;;;;;;7393708;19;19968;-75
2023/05/01 10:51:22;;;;;;;7.95;2.80;;;15.60;99.90;;;;;;7395792;19;20563;-79
2023/05/01 10:54:10;;;;;;;6.25;2.50;;;15.60;99.90;;;;;;7397583;19;19922;-78
2023/05/01 10:56:44;;;;;;;5.38;2.22;;;15.60;99.90;;;;;;7399465;19;19925;-77
2023/05/01 10:59:13;;;;;;;6.75;2.47;;;15.70;99.90;;;;;;7396024;19;19942;-77
2023/05/01 11:01:44;;;;;;;3.85;2.67;;;15.80;99.90;;;;;;7397812;19;20620;-76
2023/05/01 11:04:42;;;;;;;5.47;2.22;;;15.70;99.90;;;;;;7398846;19;19919;-76
2023/05/01 11:07:21;;;;;;;4.90;2.17;;;15.80;99.90;;;;;;7400654;19;20647;-76
2023/05/01 11:09:53;;;;;;;5.60;2.17;;;16.00;99.90;;;;;;7401490;19;19922;-79
2023/05/01 11:12:50;;;;;;;5.85;2.25;;;15.90;99.90;;;;;;7398948;19;20641;-76
2023/05/01 11:15:32;;;;;;;6.45;2.55;;;16.00;99.90;;;;;;7400929;19;19927;-79
2023/05/01 11:18:02;;;;;;;5.78;3.35;;;16.20;99.90;;;;;;7402624;19;19922;-77
2023/05/01 11:20:50;;;;;;;6.10;3.15;;;16.20;99.90;;;;;;7393660;19;19929;-77
2023/05/01 11:23:24;;;;;;;5.82;3.05;;;16.30;99.90;;;;;;7399416;19;19923;-75
2023/05/01 11:26:05;;;;;;;5.43;2.72;;;16.30;99.90;;;;;;7403910;19;20340;-77
2023/05/01 11:28:35;;;;;;;6.30;2.80;;;16.20;99.90;;;;;;7393264;19;19922;-76
2023/05/01 11:31:04;;;;;;;7.15;2.75;;;16.20;99.90;;;;;;7364295;19;19922;-78
2023/05/01 11:33:33;;;;;;;7.63;2.60;;;16.40;99.90;;;;;;7377640;19;19914;-78
2023/05/01 11:36:03;;;;;;;5.55;2.65;;;16.60;99.90;;;;;;7377358;19;20188;-77
2023/05/01 11:38:35;;;;;;;5.88;2.40;;;16.50;99.90;;;;;;7390139;19;19922;-77
2023/05/01 11:41:05;;;;;;;4.47;2.33;;;16.50;99.90;;;;;;7398557;19;19922;-77
2023/05/01 11:43:35;;;;;;;5.10;2.40;;;16.50;99.90;;;;;;7400474;19;19922;-77
2023/05/01 11:46:04;;;;;;;5.43;1.92;;;16.40;99.90;;;;;;7400287;19;19918;-75
2023/05/01 11:48:33;;;;;;;4.15;2.33;;;16.40;99.90;;;;;;7392626;19;19945;-75
2023/05/01 11:51:02;;;;;;;6.70;2.10;;;16.50;99.90;;;;;;7401326;19;19934;-75
2023/05/01 11:53:31;;;;;;;4.22;1.90;;;16.60;99.90;;;;;;7395624;19;20555;-75
2023/05/01 11:56:03;;;;;;;6.20;2.30;;;16.80;99.90;;;;;;7391959;19;19919;-75
2023/05/01 11:58:36;;;;;;;5.53;2.70;;;16.80;99.90;;;;;;7400900;19;19929;-76
2023/05/01 12:01:06;;;;;;;7.53;2.60;;;17.30;99.90;;;;;;7392382;19;19930;-75
2023/05/01 12:03:45;;;;;;;7.53;3.58;;;17.20;99.90;;;;;;7399979;19;19974;-75
2023/05/01 12:06:15;;;;;;;5.70;3.30;;;17.40;99.90;;;;;;7400171;19;19922;-75
2023/05/01 12:08:47;;;;;;;7.13;3.60;;;17.40;99.90;;;;;;7399612;19;20328;-75
2023/05/01 12:11:19;;;;;;;5.13;2.80;;;17.30;99.90;;;;;;7393379;19;19915;-75
2023/05/01 12:13:49;;;;;;;5.97;3.08;;;17.30;99.90;;;;;;7396287;19;19927;-75
2023/05/01 12:16:18;;;;;;;3.45;2.90;;;17.20;99.90;;;;;;7397264;19;19949;-75
2023/05/01 12:18:47;;;;;;;4.32;2.92;;;17.20;99.90;;;;;;7398463;19;19933;-76
2023/05/01 12:21:19;;;;;;;6.13;3.67;;;17.20;99.90;;;;;;7397151;19;19929;-76
2023/05/01 12:23:48;;;;;;;5.30;2.95;;;17.20;99.90;;;;;;7398863;19;19915;-76
2023/05/01 12:26:22;;;;;;;6.55;3.08;;;17.40;99.90;;;;;;7397733;19;19926;-74
2023/05/01 12:29:02;;;;;;;4.53;2.55;;;17.40;99.90;;;;;;7397350;19;19935;-75
2023/05/01 12:31:32;;;;;;;7.25;2.85;;;17.50;99.90;;;;;;7398940;19;19958;-76
2023/05/01 12:34:02;;;;;;;4.68;2.22;;;17.70;99.90;;;;;;7399388;19;19940;-75
2023/05/01 12:36:32;;;;;;;4.10;2.50;;;17.70;99.90;;;;;;7399038;19;19923;-76
2023/05/01 12:39:03;;;;;;;5.18;2.35;;;17.50;99.90;;;;;;7399682;19;19922;-75
2023/05/01 12:41:43;;;;;;;3.58;1.52;;;17.80;99.90;;;;;;7397759;19;19923;-76
2023/05/01 12:44:21;;;;;;;3.60;1.70;;;18.20;99.90;;;;;;7407265;19;20340;-75
2023/05/01 12:46:56;;;;;;;2.88;1.80;;;18.50;99.90;;;;;;7402572;19;19918;-75
2023/05/01 12:49:25;;;;;;;5.47;2.95;;;18.40;99.90;;;;;;7404424;19;19974;-76
2023/05/01 12:51:56;;;;;;;3.20;1.50;;;18.20;99.90;;;;;;7406213;19;20317;-77
2023/05/01 12:54:26;;;;;;;5.22;1.10;;;18.40;99.90;;;;;;7406565;19;19926;-77
2023/05/01 12:57:07;;;;;;;3.08;1.10;;;18.20;99.90;;;;;;7404746;19;19922;-77
2023/05/01 12:59:38;;;;;;;2.22;0.65;;;18.30;99.90;;;;;;7404707;19;19933;-77
2023/05/01 13:02:09;;;;;;;2.88;0.82;;;18.30;99.90;;;;;;7405868;19;19926;-77
2023/05/01 13:04:38;;;;;;;5.57;2.70;;;18.30;99.90;;;;;;7403041;19;19918;-77
2023/05/01 13:07:13;;;;;;;4.53;2.20;;;18.30;99.90;;;;;;7405392;19;19923;-78
2023/05/01 13:09:52;;;;;;;7.00;2.20;;;18.20;99.90;;;;;;7405760;19;19954;-78
2023/05/01 13:12:24;;;;;;;6.35;2.30;;;18.30;99.90;;;;;;7404156;19;19945;-79